Gulkana, AK

12:49 AM AKST on December 07, 2016 (GMT -0900)
APRSWXNET | | Change Station

Elev 1650 ft 62.29 °N, 145.34 °W | Updated 26 minutes ago

Light Snow
Light Snow Mist
-8 °F
Feels Like -8 °F
N
0
Wind Variable Wind from North
Gusts 0.0 mph

Today
High -- | Low -- °F
--% Chance of Precip.
Yesterday
High -- | Low -- °F
Precip. -- in
Pressure 30.30 in
Visibility 2.5 miles
Clouds Overcast 2300 ft
Windchill -8 °F
Dew Point -12 °F
Humidity 84%
Rainfall in
Snow Depth Not available.
9:51 AM 3:14 PM
Waxing Crescent, 51% visible
SPECI PAGK 070938Z AUTO 00000KT 2 1/2SM -SN BR OVC023 M22/M24 A3030 RMK AO2 SNB0856 P0000 T12221244 TSNO
Pressure 30.30 in
Visibility 2.5 miles
Clouds Overcast 2300 ft
Windchill -8 °F
Dew Point -12 °F
Humidity 84%
Rainfall in
Snow Depth Not available.
9:51 AM 3:14 PM
Waxing Crescent, 51% visible
SPECI PAGK 070938Z AUTO 00000KT 2 1/2SM -SN BR OVC023 M22/M24 A3030 RMK AO2 SNB0856 P0000 T12221244 TSNO

10-Day Weather Forecast

Almanac

Astronomy

Dec. 07, 2016 Rise Set
Actual Time
Civil Twilight
Nautical Twilight
Astronomical Twilight
Moon
Length of Visible Light
Length of Day
Tomorrow will be .
, % of the Moon is Illuminated

Today's Extremes

State Highs State Lows

Community

WunderPhotos

Upload Photos

1,956,111 photos uploaded!

WunderBlog® & News

Nearby

Air Quality

  Air Quality AQ Index Pollutant
Not available.

Snow Depth

Station Depth Elevation

Earthquake Activity

City Distance Mag. Time & Date
Minimum magnitude displayed is 2.5.

Coastal Water Temperatures

Place Temperature

Stations

Nearby Weather Stations

Station Location Temp. Windchill Dew Point Humidity Wind Precip. Elev Updated Type
                   

Watches & Warnings

There are currently no watches in effect.